createdAt,value
2024-02-06T00:02:08.226Z,100411.06
2024-02-06T00:05:26.733Z,100403.75
2024-02-06T00:08:29.810Z,100409.03
2024-02-06T00:11:49.268Z,100402.50
2024-02-06T00:14:52.309Z,100406.72
2024-02-06T00:17:54.627Z,100405.12
2024-02-06T00:21:10.865Z,100406.87
2024-02-06T00:24:13.755Z,100407.25
2024-02-06T00:27:16.042Z,100403.97
2024-02-06T00:30:18.369Z,100412.84
2024-02-06T00:33:20.551Z,100400.09
2024-02-06T00:36:22.741Z,100410.50
2024-02-06T00:39:24.972Z,100407.75
2024-02-06T00:42:27.130Z,100400.13
2024-02-06T00:45:29.284Z,100402.19
2024-02-06T00:48:31.774Z,100404.47
2024-02-06T00:51:34.080Z,100393.37
2024-02-06T00:54:36.229Z,100398.88
2024-02-06T00:57:38.400Z,100399.47
2024-02-06T01:01:05.628Z,100392.66
2024-02-06T01:04:07.974Z,100385.63
2024-02-06T01:07:10.393Z,100388.34
2024-02-06T01:10:12.640Z,100388.53
2024-02-06T01:13:14.825Z,100388.59
2024-02-06T01:16:17.102Z,100387.28
2024-02-06T01:19:31.520Z,100393.50
2024-02-06T01:22:33.982Z,100394.97
2024-02-06T01:25:36.285Z,100380.81
2024-02-06T01:28:38.762Z,100384.75
2024-02-06T01:31:41.143Z,100374.59
2024-02-06T01:34:43.489Z,100376.22
2024-02-06T01:37:45.651Z,100376.81
2024-02-06T01:40:47.793Z,100360.47
2024-02-06T01:43:50.024Z,100370.62
2024-02-06T01:46:53.273Z,100357.16
2024-02-06T01:49:56.931Z,100353.31
2024-02-06T01:52:59.136Z,100364.12
2024-02-06T01:56:01.313Z,100361.31
2024-02-06T01:59:03.964Z,100354.16
2024-02-06T02:02:06.256Z,100372.59
2024-02-06T02:05:09.258Z,100356.41
2024-02-06T02:08:11.785Z,100363.66
2024-02-06T02:11:13.924Z,100352.34
2024-02-06T02:14:16.125Z,100348.56
2024-02-06T02:17:18.659Z,100355.47
2024-02-06T02:20:20.878Z,100347.03
2024-02-06T02:23:29.096Z,100336.53
2024-02-06T02:26:32.117Z,100328.25
2024-02-06T02:29:34.287Z,100335.87
2024-02-06T02:32:36.548Z,100324.31
2024-02-06T02:35:39.091Z,100338.28
2024-02-06T02:38:48.588Z,100334.75
2024-02-06T02:41:52.492Z,100330.62
2024-02-06T02:44:54.594Z,100330.75
2024-02-06T02:47:56.811Z,100333.44
2024-02-06T02:50:58.965Z,100326.31
2024-02-06T02:54:01.155Z,100322.91
2024-02-06T02:57:03.329Z,100333.44
2024-02-06T03:00:08.120Z,100330.22
2024-02-06T03:03:10.554Z,100332.28
2024-02-06T03:06:22.298Z,100328.94
2024-02-06T03:09:24.509Z,100333.44
2024-02-06T03:12:33.001Z,100325.63
2024-02-06T03:19:09.447Z,100328.28
2024-02-06T03:25:36.174Z,100325.25
2024-02-06T03:28:38.452Z,100329.91
2024-02-06T03:31:40.727Z,100322.13
2024-02-06T03:34:43.081Z,100328.78
2024-02-06T03:37:45.291Z,100328.53
2024-02-06T03:40:47.550Z,100331.91
2024-02-06T03:43:50.262Z,100330.06
2024-02-06T03:46:52.438Z,100327.44
2024-02-06T03:49:54.670Z,100322.16
2024-02-06T03:52:56.804Z,100320.00
2024-02-06T03:55:58.978Z,100318.16
2024-02-06T03:59:01.218Z,100324.69
2024-02-06T04:02:04.886Z,100311.59
2024-02-06T04:05:07.402Z,100307.03
2024-02-06T04:08:09.557Z,100308.63
2024-02-06T04:11:12.572Z,100312.72
2024-02-06T04:14:14.747Z,100313.41
2024-02-06T04:17:16.853Z,100300.09
2024-02-06T04:20:19.057Z,100297.34
2024-02-06T04:23:21.472Z,100293.53
2024-02-06T04:26:23.615Z,100298.44
2024-02-06T04:29:25.702Z,100292.62
2024-02-06T04:32:27.900Z,100289.59
2024-02-06T04:35:30.096Z,100291.56
2024-02-06T04:38:32.952Z,100291.09
2024-02-06T04:41:38.239Z,100295.47
2024-02-06T04:44:40.398Z,100295.41
2024-02-06T04:47:42.638Z,100288.31
2024-02-06T04:50:44.781Z,100292.53
2024-02-06T04:53:46.938Z,100303.06
2024-02-06T04:56:49.510Z,100294.63
2024-02-06T04:59:51.964Z,100291.03
2024-02-06T05:02:54.200Z,100287.47
2024-02-06T05:05:56.387Z,100282.41
2024-02-06T05:08:58.604Z,100285.41
2024-02-06T05:12:03.452Z,100284.78
2024-02-06T05:15:05.885Z,100282.00
2024-02-06T05:18:08.524Z,100282.78
2024-02-06T05:21:10.744Z,100273.22
2024-02-06T05:24:12.905Z,100276.97
2024-02-06T05:27:15.699Z,100278.06
2024-02-06T05:30:17.917Z,100272.19
2024-02-06T05:33:20.168Z,100280.91
2024-02-06T05:36:22.651Z,100270.81
2024-02-06T05:39:25.266Z,100270.13
2024-02-06T05:42:27.444Z,100268.59
2024-02-06T05:45:29.679Z,100266.22
2024-02-06T05:48:31.855Z,100259.97
2024-02-06T05:51:33.998Z,100251.31
2024-02-06T05:54:36.082Z,100245.03
2024-02-06T05:57:38.358Z,100243.56
2024-02-06T06:00:40.316Z,100245.66
2024-02-06T06:03:42.306Z,100252.50
2024-02-06T06:06:46.461Z,100260.00
2024-02-06T06:09:48.342Z,100260.75
2024-02-06T06:12:50.294Z,100259.66
2024-02-06T06:15:52.426Z,100245.91
2024-02-06T06:18:54.838Z,100255.97
2024-02-06T06:21:57.086Z,100250.34
2024-02-06T06:24:59.005Z,100245.16
2024-02-06T06:28:01.155Z,100249.19
2024-02-06T06:31:03.609Z,100245.66
2024-02-06T06:34:08.665Z,100249.38
2024-02-06T06:37:10.823Z,100232.28
2024-02-06T06:40:13.352Z,100247.00
2024-02-06T06:43:15.466Z,100243.44
2024-02-06T06:46:17.529Z,100255.72
2024-02-06T06:49:19.650Z,100254.25
2024-02-06T06:52:21.830Z,100257.47
2024-02-06T06:55:23.834Z,100258.97
2024-02-06T06:58:25.838Z,100247.59
2024-02-06T07:01:28.102Z,100244.56
2024-02-06T07:04:30.439Z,100245.09
2024-02-06T07:07:34.041Z,100249.97
2024-02-06T07:10:36.004Z,100235.31
2024-02-06T07:13:38.198Z,100239.72
2024-02-06T07:16:41.275Z,100227.97
2024-02-06T07:19:43.495Z,100220.59
2024-02-06T07:22:45.588Z,100230.31
2024-02-06T07:25:47.761Z,100243.87
2024-02-06T07:28:49.816Z,100238.97
2024-02-06T07:31:51.984Z,100256.63
2024-02-06T07:34:54.399Z,100243.31
2024-02-06T07:37:56.327Z,100247.25
2024-02-06T07:41:00.038Z,100241.75
2024-02-06T07:44:02.464Z,100231.28
2024-02-06T07:47:04.433Z,100241.44
2024-02-06T07:50:06.699Z,100246.25
2024-02-06T07:53:08.631Z,100233.78
2024-02-06T07:56:13.538Z,100235.97
2024-02-06T07:59:17.495Z,100239.69
2024-02-06T08:02:19.578Z,100249.00
2024-02-06T08:05:21.671Z,100249.22
2024-02-06T08:08:23.770Z,100245.88
2024-02-06T08:11:26.135Z,100242.69
2024-02-06T08:14:28.091Z,100241.34
2024-02-06T08:17:30.092Z,100247.66
2024-02-06T08:20:32.751Z,100250.78
2024-02-06T08:23:34.783Z,100258.31
2024-02-06T08:26:36.758Z,100261.25
2024-02-06T08:29:44.189Z,100265.91
2024-02-06T08:32:46.227Z,100266.69
2024-02-06T08:35:53.851Z,100257.28
2024-02-06T08:38:56.007Z,100264.25
2024-02-06T08:41:57.897Z,100260.19
2024-02-06T08:44:59.807Z,100247.34
2024-02-06T08:48:04.238Z,100236.06
2024-02-06T08:51:06.319Z,100250.22
2024-02-06T08:54:08.224Z,100253.13
2024-02-06T08:57:10.251Z,100267.72
2024-02-06T09:00:13.267Z,100277.19
2024-02-06T09:03:15.338Z,100277.94
2024-02-06T09:06:17.597Z,100282.75
2024-02-06T09:09:22.559Z,100292.62
2024-02-06T09:12:25.920Z,100268.81
2024-02-06T09:15:30.229Z,100276.09
2024-02-06T09:18:32.495Z,100282.84
2024-02-06T09:21:34.744Z,100269.97
2024-02-06T09:24:36.653Z,100270.87
2024-02-06T09:27:42.553Z,100279.03
2024-02-06T09:30:46.113Z,100254.09
2024-02-06T09:33:48.045Z,100271.78
2024-02-06T09:36:50.345Z,100267.91
2024-02-06T09:39:52.260Z,100274.47
2024-02-06T09:42:54.451Z,100286.22
2024-02-06T09:45:56.769Z,100296.84
2024-02-06T09:48:58.843Z,100293.91
2024-02-06T09:52:00.856Z,100293.16
2024-02-06T09:55:06.587Z,100282.06
2024-02-06T09:58:09.032Z,100285.06
2024-02-06T10:01:14.177Z,100258.31
2024-02-06T10:04:17.541Z,100252.94
2024-02-06T10:07:20.724Z,100246.53
2024-02-06T10:10:23.281Z,100255.91
2024-02-06T10:13:25.349Z,100270.19
2024-02-06T10:16:27.543Z,100274.13
2024-02-06T10:19:35.907Z,100260.81
2024-02-06T10:22:38.478Z,100254.25
2024-02-06T10:25:40.646Z,100248.25
2024-02-06T10:28:42.934Z,100246.66
2024-02-06T10:31:45.090Z,100243.78
2024-02-06T10:34:48.730Z,100240.25
2024-02-06T10:37:51.073Z,100235.81
2024-02-06T10:43:55.843Z,100219.06
2024-02-06T10:47:06.557Z,100213.06
2024-02-06T10:50:09.400Z,100209.16
2024-02-06T10:53:11.603Z,100183.47
2024-02-06T10:56:14.740Z,100183.56
2024-02-06T10:59:17.084Z,100184.28
2024-02-06T11:02:26.874Z,100165.00
2024-02-06T11:05:31.722Z,100175.09
2024-02-06T11:08:33.646Z,100175.34
2024-02-06T11:11:35.905Z,100177.25
2024-02-06T11:14:38.370Z,100177.97
2024-02-06T11:17:40.420Z,100173.72
2024-02-06T11:20:42.639Z,100173.94
2024-02-06T11:23:44.603Z,100173.91
2024-02-06T11:26:46.509Z,100171.03
2024-02-06T11:29:48.438Z,100159.75
2024-02-06T11:33:00.567Z,100158.34
2024-02-06T11:36:11.620Z,100155.03
2024-02-06T11:39:13.791Z,100153.56
2024-02-06T11:42:23.211Z,100157.16
2024-02-06T11:45:25.168Z,100156.88
2024-02-06T11:48:27.641Z,100141.06
2024-02-06T11:51:30.084Z,100140.25
2024-02-06T11:54:32.171Z,100149.63
2024-02-06T11:57:34.143Z,100155.09
2024-02-06T12:00:37.491Z,100157.62
2024-02-06T12:03:39.515Z,100157.31
2024-02-06T12:06:42.427Z,100155.94
2024-02-06T12:09:44.432Z,100136.44
2024-02-06T12:12:46.466Z,100128.22
2024-02-06T12:15:48.427Z,100130.31
2024-02-06T12:18:51.839Z,100134.53
2024-02-06T12:22:01.154Z,100123.84
2024-02-06T12:25:03.663Z,100134.59
2024-02-06T12:28:10.759Z,100123.16
2024-02-06T12:31:14.811Z,100125.41
2024-02-06T12:34:17.111Z,100118.81
2024-02-06T12:37:19.140Z,100108.44
2024-02-06T12:40:22.217Z,100113.50
2024-02-06T12:43:24.555Z,100099.53
2024-02-06T12:46:26.705Z,100088.88
2024-02-06T12:49:31.228Z,100099.81
2024-02-06T12:52:34.273Z,100095.38
2024-02-06T12:55:41.274Z,100085.94
2024-02-06T12:58:43.591Z,100073.38
2024-02-06T13:01:45.628Z,100074.69
2024-02-06T13:04:49.353Z,100082.06
2024-02-06T13:07:51.664Z,100080.66
2024-02-06T13:10:54.405Z,100078.03
2024-02-06T13:13:56.553Z,100069.78
2024-02-06T13:17:00.082Z,100082.78
2024-02-06T13:20:06.989Z,100065.25
2024-02-06T13:23:13.555Z,100060.87
2024-02-06T13:26:15.466Z,100051.50
2024-02-06T13:29:17.467Z,100049.69
2024-02-06T13:32:19.644Z,100058.56
2024-02-06T13:35:21.732Z,100047.28
2024-02-06T13:38:24.545Z,100044.91
2024-02-06T13:41:29.738Z,100047.06
2024-02-06T13:44:31.779Z,100054.00
2024-02-06T13:47:34.866Z,100047.13
2024-02-06T13:50:36.958Z,100045.41
2024-02-06T13:53:39.270Z,100055.69
2024-02-06T13:56:43.137Z,100034.91
2024-02-06T13:59:45.138Z,100040.84
2024-02-06T14:02:47.832Z,100044.37
2024-02-06T14:05:49.800Z,100042.91
2024-02-06T14:08:53.074Z,100049.69
2024-02-06T14:11:58.455Z,100054.63
2024-02-06T14:15:00.688Z,100045.62
2024-02-06T14:18:02.957Z,100048.41
2024-02-06T14:21:05.013Z,100058.44
2024-02-06T14:24:07.008Z,100066.28
2024-02-06T14:27:09.059Z,100062.22
2024-02-06T14:30:13.970Z,100061.50
2024-02-06T14:33:16.871Z,100050.63
2024-02-06T14:36:18.995Z,100055.28
2024-02-06T14:39:21.315Z,100076.44
2024-02-06T14:42:24.054Z,100063.56
2024-02-06T14:45:39.583Z,100055.81
2024-02-06T14:48:48.564Z,100053.97
2024-02-06T14:51:52.759Z,100053.19
2024-02-06T14:54:55.571Z,100047.72
2024-02-06T14:57:57.829Z,100063.66
2024-02-06T15:01:01.548Z,100058.25
2024-02-06T15:04:08.195Z,100052.94
2024-02-06T15:07:12.672Z,100051.91
2024-02-06T15:10:15.947Z,100071.94
2024-02-06T15:13:18.002Z,100062.00
2024-02-06T15:16:20.578Z,100070.56
2024-02-06T15:19:22.781Z,100063.47
2024-02-06T15:22:25.110Z,100068.38
2024-02-06T15:25:27.243Z,100068.75
2024-02-06T15:28:29.246Z,100074.72
2024-02-06T15:31:31.298Z,100063.06
2024-02-06T15:34:33.369Z,100065.75
2024-02-06T15:37:35.548Z,100066.94
2024-02-06T15:40:37.856Z,100066.81
2024-02-06T15:43:40.141Z,100070.97
2024-02-06T15:46:42.572Z,100061.09
2024-02-06T15:49:47.772Z,100068.94
2024-02-06T15:52:49.909Z,100075.38
2024-02-06T15:55:52.624Z,100076.69
2024-02-06T15:58:54.949Z,100078.97
2024-02-06T16:01:57.923Z,100082.00
2024-02-06T16:05:00.461Z,100086.47
2024-02-06T16:08:02.589Z,100082.25
2024-02-06T16:11:05.220Z,100084.84
2024-02-06T16:14:07.112Z,100086.06
2024-02-06T16:17:09.316Z,100094.56
2024-02-06T16:20:12.215Z,100084.59
2024-02-06T16:23:14.386Z,100091.56
2024-02-06T16:26:16.305Z,100089.94
2024-02-06T16:29:18.220Z,100094.03
2024-02-06T16:32:20.260Z,100092.63
2024-02-06T16:35:22.479Z,100099.91
2024-02-06T16:38:25.277Z,100115.37
2024-02-06T16:41:31.040Z,100115.09
2024-02-06T16:44:33.097Z,100115.47
2024-02-06T16:47:35.142Z,100105.37
2024-02-06T16:50:37.506Z,100106.50
2024-02-06T16:53:39.516Z,100137.38
2024-02-06T16:56:41.699Z,100136.19
2024-02-06T16:59:43.801Z,100135.66
2024-02-06T17:02:50.583Z,100129.31
2024-02-06T17:05:53.251Z,100140.12
2024-02-06T17:08:55.867Z,100139.75
2024-02-06T17:11:58.190Z,100132.97
2024-02-06T17:15:11.730Z,100137.50
2024-02-06T17:18:14.192Z,100133.75
2024-02-06T17:21:16.771Z,100134.91
2024-02-06T17:24:18.946Z,100122.31
2024-02-06T17:27:21.087Z,100124.31
2024-02-06T17:30:23.392Z,100137.88
2024-02-06T17:33:25.703Z,100134.72
2024-02-06T17:36:28.135Z,100136.25
2024-02-06T17:39:30.510Z,100136.66
2024-02-06T17:42:34.690Z,100145.22
2024-02-06T17:45:39.456Z,100145.97
2024-02-06T17:48:41.569Z,100145.47
2024-02-06T17:51:43.699Z,100159.19
2024-02-06T17:54:46.073Z,100152.87
2024-02-06T17:57:48.150Z,100146.63
2024-02-06T18:00:52.904Z,100138.22
2024-02-06T18:03:55.421Z,100152.56
2024-02-06T18:06:57.815Z,100151.69
2024-02-06T18:10:01.015Z,100155.19
2024-02-06T18:13:08.125Z,100140.88
2024-02-06T18:16:10.318Z,100142.06
2024-02-06T18:19:12.635Z,100144.28
2024-02-06T18:22:15.071Z,100141.03
2024-02-06T18:25:17.306Z,100145.13
2024-02-06T18:28:19.764Z,100140.28
2024-02-06T18:31:22.158Z,100138.63
2024-02-06T18:34:24.513Z,100144.34
2024-02-06T18:37:26.827Z,100141.97
2024-02-06T18:40:29.048Z,100137.97
2024-02-06T18:47:12.709Z,100155.63
2024-02-06T18:50:34.983Z,100164.91
2024-02-06T18:54:18.670Z,100141.38
2024-02-06T18:58:02.213Z,100137.25
2024-02-06T19:01:28.641Z,100137.34
2024-02-06T19:04:51.685Z,100133.47
2024-02-06T19:08:03.303Z,100131.44
2024-02-06T19:11:17.398Z,100140.84
2024-02-06T19:14:26.547Z,100136.47
2024-02-06T19:17:55.214Z,100143.44
2024-02-06T19:25:01.075Z,100130.19
2024-02-06T19:28:20.077Z,100142.63
2024-02-06T19:31:34.555Z,100121.91
2024-02-06T19:35:09.650Z,100130.16
2024-02-06T19:38:28.549Z,100132.94
2024-02-06T19:41:46.631Z,100137.66
2024-02-06T19:45:18.552Z,100121.75
2024-02-06T19:48:34.363Z,100127.81
2024-02-06T19:51:57.592Z,100131.53
2024-02-06T19:55:17.723Z,100130.62
2024-02-06T19:58:40.364Z,100122.69
2024-02-06T20:01:53.760Z,100131.66
2024-02-06T20:05:21.699Z,100137.50
2024-02-06T20:08:36.992Z,100132.22
2024-02-06T20:11:56.476Z,100134.56
2024-02-06T20:19:15.981Z,100133.66
2024-02-06T20:22:30.779Z,100152.16
2024-02-06T20:25:52.908Z,100158.94
2024-02-06T20:29:18.433Z,100162.41
2024-02-06T20:33:21.422Z,100166.97
2024-02-06T20:37:03.966Z,100160.59
2024-02-06T20:40:21.758Z,100174.44
2024-02-06T20:46:54.299Z,100163.63
2024-02-06T20:49:56.636Z,100159.22
2024-02-06T20:52:58.875Z,100155.78
2024-02-06T20:56:11.449Z,100153.22
2024-02-06T20:59:13.995Z,100157.59
2024-02-06T21:02:16.363Z,100162.37
2024-02-06T21:05:18.568Z,100154.16
2024-02-06T21:08:20.855Z,100142.28
2024-02-06T21:11:22.945Z,100148.16
2024-02-06T21:14:25.101Z,100145.03
2024-02-06T21:17:30.522Z,100146.66
2024-02-06T21:20:33.189Z,100145.84
2024-02-06T21:23:36.639Z,100152.63
2024-02-06T21:26:38.911Z,100151.72
2024-02-06T21:29:41.543Z,100153.09
2024-02-06T21:32:43.791Z,100146.03
2024-02-06T21:35:46.010Z,100141.19
2024-02-06T21:38:48.104Z,100144.69
2024-02-06T21:41:50.290Z,100137.59
2024-02-06T21:44:52.659Z,100137.53
2024-02-06T21:47:54.838Z,100132.72
2024-02-06T21:50:57.124Z,100131.69
2024-02-06T21:53:59.268Z,100128.37
2024-02-06T21:57:01.461Z,100123.66
2024-02-06T22:00:03.937Z,100117.97
2024-02-06T22:03:06.054Z,100119.38
2024-02-06T22:06:08.330Z,100117.75
2024-02-06T22:09:11.975Z,100113.12
2024-02-06T22:12:14.886Z,100102.56
2024-02-06T22:15:17.004Z,100107.59
2024-02-06T22:18:19.257Z,100106.28
2024-02-06T22:21:21.416Z,100093.09
2024-02-06T22:24:26.195Z,100096.06
2024-02-06T22:27:29.212Z,100104.87
2024-02-06T22:30:31.371Z,100095.28
2024-02-06T22:33:33.666Z,100098.16
2024-02-06T22:36:40.159Z,100085.81
2024-02-06T22:39:44.411Z,100095.56
2024-02-06T22:42:46.603Z,100092.34
2024-02-06T22:45:48.806Z,100091.19
2024-02-06T22:48:50.980Z,100096.47
2024-02-06T22:51:53.034Z,100100.88
2024-02-06T22:54:55.235Z,100107.34
2024-02-06T22:57:57.458Z,100096.69
2024-02-06T23:00:59.734Z,100094.47
2024-02-06T23:04:04.081Z,100087.16
2024-02-06T23:07:06.495Z,100097.31
2024-02-06T23:10:09.666Z,100098.97
2024-02-06T23:13:11.957Z,100095.31
2024-02-06T23:16:14.136Z,100098.75
2024-02-06T23:19:16.370Z,100101.41
2024-02-06T23:22:18.686Z,100095.91
2024-02-06T23:25:20.933Z,100091.63
2024-02-06T23:28:23.142Z,100098.75
2024-02-06T23:31:26.154Z,100086.06
2024-02-06T23:34:29.034Z,100086.75
2024-02-06T23:37:31.179Z,100083.38
2024-02-06T23:40:33.351Z,100079.94
2024-02-06T23:43:35.861Z,100068.25
2024-02-06T23:46:38.066Z,100059.69
2024-02-06T23:49:41.171Z,100065.53
2024-02-06T23:52:43.426Z,100061.97
2024-02-06T23:55:45.934Z,100059.78
2024-02-06T23:58:48.165Z,100054.81
